sensor_id;sensor_type;location;lat;lon;timestamp;P1;durP1;ratioP1;P2;durP2;ratioP2
16954;SDS011;8594;52.052;8.354;2022-10-17T00:01:41;4.50;;;3.00;;
16954;SDS011;8594;52.052;8.354;2022-10-17T00:04:08;6.10;;;2.90;;
16954;SDS011;8594;52.052;8.354;2022-10-17T00:06:34;5.57;;;3.50;;
16954;SDS011;8594;52.052;8.354;2022-10-17T00:09:02;6.77;;;3.40;;
16954;SDS011;8594;52.052;8.354;2022-10-17T00:11:29;5.13;;;3.63;;
16954;SDS011;8594;52.052;8.354;2022-10-17T00:13:56;5.77;;;3.50;;
16954;SDS011;8594;52.052;8.354;2022-10-17T00:16:24;5.87;;;4.03;;
16954;SDS011;8594;52.052;8.354;2022-10-17T00:18:54;5.47;;;3.93;;
16954;SDS011;8594;52.052;8.354;2022-10-17T00:21:22;6.47;;;3.90;;
16954;SDS011;8594;52.052;8.354;2022-10-17T00:23:49;8.43;;;3.97;;
16954;SDS011;8594;52.052;8.354;2022-10-17T00:26:19;6.17;;;3.97;;
16954;SDS011;8594;52.052;8.354;2022-10-17T00:28:47;5.47;;;4.60;;
16954;SDS011;8594;52.052;8.354;2022-10-17T00:31:16;6.90;;;4.13;;
16954;SDS011;8594;52.052;8.354;2022-10-17T00:33:47;6.17;;;4.67;;
16954;SDS011;8594;52.052;8.354;2022-10-17T00:36:15;7.13;;;4.10;;
16954;SDS011;8594;52.052;8.354;2022-10-17T00:38:45;10.70;;;5.13;;
16954;SDS011;8594;52.052;8.354;2022-10-17T00:41:16;7.13;;;4.40;;
16954;SDS011;8594;52.052;8.354;2022-10-17T00:43:53;7.23;;;4.70;;
16954;SDS011;8594;52.052;8.354;2022-10-17T00:46:24;6.57;;;4.50;;
16954;SDS011;8594;52.052;8.354;2022-10-17T00:48:56;6.50;;;4.70;;
16954;SDS011;8594;52.052;8.354;2022-10-17T00:51:29;11.33;;;4.93;;
16954;SDS011;8594;52.052;8.354;2022-10-17T00:54:01;7.23;;;4.60;;
16954;SDS011;8594;52.052;8.354;2022-10-17T00:56:29;6.73;;;4.83;;
16954;SDS011;8594;52.052;8.354;2022-10-17T00:58:58;11.33;;;4.97;;
16954;SDS011;8594;52.052;8.354;2022-10-17T01:01:26;5.83;;;4.27;;
16954;SDS011;8594;52.052;8.354;2022-10-17T01:03:53;5.63;;;4.30;;
16954;SDS011;8594;52.052;8.354;2022-10-17T01:06:21;8.27;;;4.70;;
16954;SDS011;8594;52.052;8.354;2022-10-17T01:08:48;5.80;;;4.30;;
16954;SDS011;8594;52.052;8.354;2022-10-17T01:11:21;7.47;;;4.10;;
16954;SDS011;8594;52.052;8.354;2022-10-17T01:14:03;10.03;;;4.60;;
16954;SDS011;8594;52.052;8.354;2022-10-17T01:16:41;6.33;;;4.43;;
16954;SDS011;8594;52.052;8.354;2022-10-17T01:19:26;6.73;;;4.60;;
16954;SDS011;8594;52.052;8.354;2022-10-17T01:22:18;5.47;;;4.50;;
16954;SDS011;8594;52.052;8.354;2022-10-17T01:24:55;9.37;;;4.90;;
16954;SDS011;8594;52.052;8.354;2022-10-17T01:33:34;7.80;;;4.93;;
16954;SDS011;8594;52.052;8.354;2022-10-17T01:36:26;7.97;;;5.03;;
16954;SDS011;8594;52.052;8.354;2022-10-17T01:39:06;8.27;;;4.80;;
16954;SDS011;8594;52.052;8.354;2022-10-17T01:41:44;8.67;;;4.70;;
16954;SDS011;8594;52.052;8.354;2022-10-17T01:44:18;7.80;;;5.27;;
16954;SDS011;8594;52.052;8.354;2022-10-17T01:46:56;7.30;;;5.07;;
16954;SDS011;8594;52.052;8.354;2022-10-17T01:49:29;9.30;;;5.30;;
16954;SDS011;8594;52.052;8.354;2022-10-17T01:52:04;9.50;;;5.53;;
16954;SDS011;8594;52.052;8.354;2022-10-17T01:54:38;12.80;;;5.33;;
16954;SDS011;8594;52.052;8.354;2022-10-17T01:57:14;6.73;;;4.80;;
16954;SDS011;8594;52.052;8.354;2022-10-17T01:59:48;7.37;;;5.17;;
16954;SDS011;8594;52.052;8.354;2022-10-17T02:02:19;8.13;;;5.00;;
16954;SDS011;8594;52.052;8.354;2022-10-17T02:04:47;13.23;;;4.73;;
16954;SDS011;8594;52.052;8.354;2022-10-17T02:07:17;11.80;;;4.93;;
16954;SDS011;8594;52.052;8.354;2022-10-17T02:09:44;5.97;;;4.93;;
16954;SDS011;8594;52.052;8.354;2022-10-17T02:12:16;11.17;;;5.13;;
16954;SDS011;8594;52.052;8.354;2022-10-17T02:15:06;7.63;;;4.70;;
16954;SDS011;8594;52.052;8.354;2022-10-17T02:17:56;8.20;;;4.57;;
16954;SDS011;8594;52.052;8.354;2022-10-17T02:20:41;9.33;;;5.40;;
16954;SDS011;8594;52.052;8.354;2022-10-17T02:23:23;9.83;;;4.50;;
16954;SDS011;8594;52.052;8.354;2022-10-17T02:26:00;7.90;;;4.97;;
16954;SDS011;8594;52.052;8.354;2022-10-17T02:28:36;8.17;;;5.10;;
16954;SDS011;8594;52.052;8.354;2022-10-17T02:31:12;6.53;;;4.70;;
16954;SDS011;8594;52.052;8.354;2022-10-17T02:33:44;10.40;;;5.13;;
16954;SDS011;8594;52.052;8.354;2022-10-17T02:36:18;5.37;;;4.50;;
16954;SDS011;8594;52.052;8.354;2022-10-17T02:38:51;6.90;;;4.80;;
16954;SDS011;8594;52.052;8.354;2022-10-17T02:41:21;8.23;;;5.07;;
16954;SDS011;8594;52.052;8.354;2022-10-17T02:43:50;16.13;;;4.57;;
16954;SDS011;8594;52.052;8.354;2022-10-17T02:46:19;6.33;;;4.80;;
16954;SDS011;8594;52.052;8.354;2022-10-17T02:48:51;6.67;;;4.87;;
16954;SDS011;8594;52.052;8.354;2022-10-17T02:51:25;6.33;;;4.63;;
16954;SDS011;8594;52.052;8.354;2022-10-17T02:54:03;9.57;;;4.77;;
16954;SDS011;8594;52.052;8.354;2022-10-17T02:56:38;8.80;;;4.60;;
16954;SDS011;8594;52.052;8.354;2022-10-17T02:59:12;7.10;;;4.80;;
16954;SDS011;8594;52.052;8.354;2022-10-17T03:01:42;7.90;;;4.43;;
16954;SDS011;8594;52.052;8.354;2022-10-17T03:04:12;7.80;;;4.73;;
16954;SDS011;8594;52.052;8.354;2022-10-17T03:06:40;11.37;;;5.87;;
16954;SDS011;8594;52.052;8.354;2022-10-17T03:09:07;10.53;;;5.10;;
16954;SDS011;8594;52.052;8.354;2022-10-17T03:11:34;8.03;;;4.67;;
16954;SDS011;8594;52.052;8.354;2022-10-17T03:14:01;8.03;;;4.80;;
16954;SDS011;8594;52.052;8.354;2022-10-17T03:16:28;11.47;;;4.73;;
16954;SDS011;8594;52.052;8.354;2022-10-17T03:18:55;13.80;;;4.50;;
16954;SDS011;8594;52.052;8.354;2022-10-17T03:21:23;7.33;;;4.83;;
16954;SDS011;8594;52.052;8.354;2022-10-17T03:23:50;8.60;;;4.90;;
16954;SDS011;8594;52.052;8.354;2022-10-17T03:26:17;9.43;;;5.40;;
16954;SDS011;8594;52.052;8.354;2022-10-17T03:28:44;12.03;;;5.10;;
16954;SDS011;8594;52.052;8.354;2022-10-17T03:31:11;8.57;;;4.57;;
16954;SDS011;8594;52.052;8.354;2022-10-17T03:33:41;7.43;;;5.30;;
16954;SDS011;8594;52.052;8.354;2022-10-17T03:36:09;11.33;;;5.13;;
16954;SDS011;8594;52.052;8.354;2022-10-17T03:38:40;7.33;;;4.67;;
16954;SDS011;8594;52.052;8.354;2022-10-17T03:41:08;8.90;;;5.17;;
16954;SDS011;8594;52.052;8.354;2022-10-17T03:43:35;9.63;;;5.27;;
16954;SDS011;8594;52.052;8.354;2022-10-17T03:46:02;5.97;;;5.00;;
16954;SDS011;8594;52.052;8.354;2022-10-17T03:48:30;11.47;;;5.40;;
16954;SDS011;8594;52.052;8.354;2022-10-17T03:50:58;9.60;;;4.93;;
16954;SDS011;8594;52.052;8.354;2022-10-17T03:53:26;5.67;;;4.70;;
16954;SDS011;8594;52.052;8.354;2022-10-17T03:55:55;8.37;;;4.93;;
16954;SDS011;8594;52.052;8.354;2022-10-17T03:58:33;12.37;;;4.93;;
16954;SDS011;8594;52.052;8.354;2022-10-17T04:01:02;9.60;;;4.87;;
16954;SDS011;8594;52.052;8.354;2022-10-17T04:03:30;10.63;;;5.40;;
16954;SDS011;8594;52.052;8.354;2022-10-17T04:05:57;7.20;;;4.80;;
16954;SDS011;8594;52.052;8.354;2022-10-17T04:08:25;8.20;;;5.33;;
16954;SDS011;8594;52.052;8.354;2022-10-17T04:10:56;16.07;;;5.30;;
16954;SDS011;8594;52.052;8.354;2022-10-17T04:13:25;11.23;;;5.80;;
16954;SDS011;8594;52.052;8.354;2022-10-17T04:15:53;8.83;;;5.23;;
16954;SDS011;8594;52.052;8.354;2022-10-17T04:18:21;9.10;;;5.40;;
16954;SDS011;8594;52.052;8.354;2022-10-17T04:20:47;7.97;;;5.43;;
16954;SDS011;8594;52.052;8.354;2022-10-17T04:23:15;8.67;;;5.73;;
16954;SDS011;8594;52.052;8.354;2022-10-17T04:25:42;11.97;;;5.40;;
16954;SDS011;8594;52.052;8.354;2022-10-17T04:28:10;8.50;;;5.50;;
16954;SDS011;8594;52.052;8.354;2022-10-17T04:30:37;9.80;;;5.23;;
16954;SDS011;8594;52.052;8.354;2022-10-17T04:33:05;9.40;;;5.23;;
16954;SDS011;8594;52.052;8.354;2022-10-17T04:35:32;13.77;;;5.47;;
16954;SDS011;8594;52.052;8.354;2022-10-17T04:37:59;8.53;;;5.03;;
16954;SDS011;8594;52.052;8.354;2022-10-17T04:40:26;11.60;;;6.30;;
16954;SDS011;8594;52.052;8.354;2022-10-17T04:42:53;9.33;;;5.07;;
16954;SDS011;8594;52.052;8.354;2022-10-17T04:45:21;9.13;;;5.13;;
16954;SDS011;8594;52.052;8.354;2022-10-17T04:47:48;11.53;;;5.57;;
16954;SDS011;8594;52.052;8.354;2022-10-17T04:50:15;8.30;;;5.87;;
16954;SDS011;8594;52.052;8.354;2022-10-17T04:52:43;9.17;;;5.47;;
16954;SDS011;8594;52.052;8.354;2022-10-17T04:55:10;10.27;;;5.47;;
16954;SDS011;8594;52.052;8.354;2022-10-17T04:57:37;9.67;;;5.40;;
16954;SDS011;8594;52.052;8.354;2022-10-17T05:00:04;13.47;;;5.50;;
16954;SDS011;8594;52.052;8.354;2022-10-17T05:02:34;9.27;;;5.87;;
16954;SDS011;8594;52.052;8.354;2022-10-17T05:05:01;9.33;;;5.13;;
16954;SDS011;8594;52.052;8.354;2022-10-17T05:07:28;7.87;;;5.07;;
16954;SDS011;8594;52.052;8.354;2022-10-17T05:09:55;10.67;;;5.37;;
16954;SDS011;8594;52.052;8.354;2022-10-17T05:12:23;15.90;;;5.63;;
16954;SDS011;8594;52.052;8.354;2022-10-17T05:14:50;9.53;;;5.60;;
16954;SDS011;8594;52.052;8.354;2022-10-17T05:17:17;10.37;;;5.97;;
16954;SDS011;8594;52.052;8.354;2022-10-17T05:19:45;10.87;;;5.97;;
16954;SDS011;8594;52.052;8.354;2022-10-17T05:22:12;9.70;;;5.57;;
16954;SDS011;8594;52.052;8.354;2022-10-17T05:24:39;10.27;;;5.80;;
16954;SDS011;8594;52.052;8.354;2022-10-17T05:27:06;7.70;;;5.40;;
16954;SDS011;8594;52.052;8.354;2022-10-17T05:29:33;11.20;;;5.87;;
16954;SDS011;8594;52.052;8.354;2022-10-17T05:32:00;12.37;;;5.57;;
16954;SDS011;8594;52.052;8.354;2022-10-17T05:34:27;11.70;;;5.57;;
16954;SDS011;8594;52.052;8.354;2022-10-17T05:36:55;7.60;;;5.07;;
16954;SDS011;8594;52.052;8.354;2022-10-17T05:39:22;11.17;;;5.47;;
16954;SDS011;8594;52.052;8.354;2022-10-17T05:41:49;12.67;;;6.37;;
16954;SDS011;8594;52.052;8.354;2022-10-17T05:44:16;12.43;;;5.20;;
16954;SDS011;8594;52.052;8.354;2022-10-17T05:46:43;9.77;;;5.67;;
16954;SDS011;8594;52.052;8.354;2022-10-17T05:49:12;7.53;;;5.43;;
16954;SDS011;8594;52.052;8.354;2022-10-17T05:51:39;7.97;;;5.00;;
16954;SDS011;8594;52.052;8.354;2022-10-17T05:54:08;8.77;;;5.40;;
16954;SDS011;8594;52.052;8.354;2022-10-17T05:56:35;9.50;;;6.00;;
16954;SDS011;8594;52.052;8.354;2022-10-17T05:59:03;8.23;;;5.40;;
16954;SDS011;8594;52.052;8.354;2022-10-17T06:01:30;10.00;;;5.70;;
16954;SDS011;8594;52.052;8.354;2022-10-17T06:03:57;11.47;;;5.57;;
16954;SDS011;8594;52.052;8.354;2022-10-17T06:06:24;8.30;;;5.50;;
16954;SDS011;8594;52.052;8.354;2022-10-17T06:08:51;9.43;;;6.03;;
16954;SDS011;8594;52.052;8.354;2022-10-17T06:11:19;7.27;;;5.00;;
16954;SDS011;8594;52.052;8.354;2022-10-17T06:13:46;8.90;;;5.43;;
16954;SDS011;8594;52.052;8.354;2022-10-17T06:16:13;8.60;;;5.30;;
16954;SDS011;8594;52.052;8.354;2022-10-17T06:18:39;8.77;;;5.37;;
16954;SDS011;8594;52.052;8.354;2022-10-17T06:21:09;8.10;;;5.57;;
16954;SDS011;8594;52.052;8.354;2022-10-17T06:23:37;11.60;;;5.40;;
16954;SDS011;8594;52.052;8.354;2022-10-17T06:26:04;13.83;;;5.30;;
16954;SDS011;8594;52.052;8.354;2022-10-17T06:28:33;8.13;;;5.20;;
16954;SDS011;8594;52.052;8.354;2022-10-17T06:31:03;10.57;;;5.50;;
16954;SDS011;8594;52.052;8.354;2022-10-17T06:33:31;11.70;;;6.13;;
16954;SDS011;8594;52.052;8.354;2022-10-17T06:35:58;7.57;;;5.40;;
16954;SDS011;8594;52.052;8.354;2022-10-17T06:38:25;10.80;;;5.27;;
16954;SDS011;8594;52.052;8.354;2022-10-17T06:40:52;7.87;;;5.57;;
16954;SDS011;8594;52.052;8.354;2022-10-17T06:43:21;13.87;;;5.73;;
16954;SDS011;8594;52.052;8.354;2022-10-17T06:45:49;9.47;;;5.83;;
16954;SDS011;8594;52.052;8.354;2022-10-17T06:48:16;9.70;;;5.20;;
16954;SDS011;8594;52.052;8.354;2022-10-17T06:50:43;10.90;;;4.87;;
16954;SDS011;8594;52.052;8.354;2022-10-17T06:53:10;9.60;;;5.50;;
16954;SDS011;8594;52.052;8.354;2022-10-17T06:55:37;14.83;;;5.47;;
16954;SDS011;8594;52.052;8.354;2022-10-17T06:58:04;8.13;;;5.00;;
16954;SDS011;8594;52.052;8.354;2022-10-17T07:00:31;10.57;;;4.90;;
16954;SDS011;8594;52.052;8.354;2022-10-17T07:02:59;8.73;;;4.97;;
16954;SDS011;8594;52.052;8.354;2022-10-17T07:05:26;9.90;;;5.30;;
16954;SDS011;8594;52.052;8.354;2022-10-17T07:07:53;8.83;;;5.27;;
16954;SDS011;8594;52.052;8.354;2022-10-17T07:10:20;10.30;;;5.00;;
16954;SDS011;8594;52.052;8.354;2022-10-17T07:12:47;8.23;;;4.20;;
16954;SDS011;8594;52.052;8.354;2022-10-17T07:15:14;7.53;;;4.83;;
16954;SDS011;8594;52.052;8.354;2022-10-17T07:17:41;7.00;;;4.90;;
16954;SDS011;8594;52.052;8.354;2022-10-17T07:20:09;8.40;;;4.83;;
16954;SDS011;8594;52.052;8.354;2022-10-17T07:22:37;11.17;;;4.13;;
16954;SDS011;8594;52.052;8.354;2022-10-17T07:25:04;8.17;;;4.30;;
16954;SDS011;8594;52.052;8.354;2022-10-17T07:27:32;12.53;;;5.03;;
16954;SDS011;8594;52.052;8.354;2022-10-17T07:29:59;11.90;;;4.77;;
16954;SDS011;8594;52.052;8.354;2022-10-17T07:32:26;11.07;;;4.47;;
16954;SDS011;8594;52.052;8.354;2022-10-17T07:34:53;8.80;;;5.13;;
16954;SDS011;8594;52.052;8.354;2022-10-17T07:37:21;9.57;;;4.93;;
16954;SDS011;8594;52.052;8.354;2022-10-17T07:39:48;10.93;;;5.07;;
16954;SDS011;8594;52.052;8.354;2022-10-17T07:42:15;10.23;;;4.27;;
16954;SDS011;8594;52.052;8.354;2022-10-17T07:44:42;9.23;;;4.50;;
16954;SDS011;8594;52.052;8.354;2022-10-17T07:47:11;6.63;;;4.63;;
16954;SDS011;8594;52.052;8.354;2022-10-17T07:49:38;9.87;;;4.30;;
16954;SDS011;8594;52.052;8.354;2022-10-17T07:52:07;9.97;;;4.97;;
16954;SDS011;8594;52.052;8.354;2022-10-17T07:54:37;9.07;;;4.47;;
16954;SDS011;8594;52.052;8.354;2022-10-17T07:57:04;10.30;;;5.00;;
16954;SDS011;8594;52.052;8.354;2022-10-17T07:59:31;8.90;;;4.63;;
16954;SDS011;8594;52.052;8.354;2022-10-17T08:01:59;11.17;;;4.70;;
16954;SDS011;8594;52.052;8.354;2022-10-17T08:04:26;9.17;;;4.10;;
16954;SDS011;8594;52.052;8.354;2022-10-17T08:06:53;12.53;;;4.43;;
16954;SDS011;8594;52.052;8.354;2022-10-17T08:09:20;10.57;;;4.40;;
16954;SDS011;8594;52.052;8.354;2022-10-17T08:11:48;7.10;;;4.03;;
16954;SDS011;8594;52.052;8.354;2022-10-17T08:14:15;10.30;;;4.47;;
16954;SDS011;8594;52.052;8.354;2022-10-17T08:16:42;9.97;;;4.17;;
16954;SDS011;8594;52.052;8.354;2022-10-17T08:19:09;6.47;;;4.43;;
16954;SDS011;8594;52.052;8.354;2022-10-17T08:21:37;8.83;;;4.33;;
16954;SDS011;8594;52.052;8.354;2022-10-17T08:24:05;11.13;;;4.27;;
16954;SDS011;8594;52.052;8.354;2022-10-17T08:26:32;6.97;;;4.33;;
16954;SDS011;8594;52.052;8.354;2022-10-17T08:29:00;6.93;;;4.17;;
16954;SDS011;8594;52.052;8.354;2022-10-17T08:31:27;7.33;;;3.97;;
16954;SDS011;8594;52.052;8.354;2022-10-17T08:33:54;4.73;;;3.93;;
16954;SDS011;8594;52.052;8.354;2022-10-17T08:36:21;6.17;;;4.13;;
16954;SDS011;8594;52.052;8.354;2022-10-17T08:38:47;7.37;;;4.03;;
16954;SDS011;8594;52.052;8.354;2022-10-17T08:41:18;5.63;;;3.87;;
16954;SDS011;8594;52.052;8.354;2022-10-17T08:44:07;8.73;;;3.97;;
16954;SDS011;8594;52.052;8.354;2022-10-17T08:46:51;8.63;;;4.47;;
16954;SDS011;8594;52.052;8.354;2022-10-17T08:49:25;7.07;;;3.90;;
16954;SDS011;8594;52.052;8.354;2022-10-17T08:52:06;7.80;;;3.80;;
16954;SDS011;8594;52.052;8.354;2022-10-17T08:54:43;11.57;;;4.00;;
16954;SDS011;8594;52.052;8.354;2022-10-17T08:57:13;9.57;;;3.67;;
16954;SDS011;8594;52.052;8.354;2022-10-17T08:59:44;7.63;;;3.60;;
16954;SDS011;8594;52.052;8.354;2022-10-17T09:02:21;14.43;;;4.70;;
16954;SDS011;8594;52.052;8.354;2022-10-17T09:05:18;11.57;;;4.10;;
16954;SDS011;8594;52.052;8.354;2022-10-17T09:07:59;7.00;;;4.23;;
16954;SDS011;8594;52.052;8.354;2022-10-17T09:10:41;6.83;;;3.90;;
16954;SDS011;8594;52.052;8.354;2022-10-17T09:13:23;10.07;;;4.33;;
16954;SDS011;8594;52.052;8.354;2022-10-17T09:16:09;6.43;;;4.07;;
16954;SDS011;8594;52.052;8.354;2022-10-17T09:18:59;6.83;;;4.03;;
16954;SDS011;8594;52.052;8.354;2022-10-17T09:21:32;7.83;;;4.20;;
16954;SDS011;8594;52.052;8.354;2022-10-17T09:24:10;7.33;;;3.70;;
16954;SDS011;8594;52.052;8.354;2022-10-17T09:26:43;6.20;;;3.87;;
16954;SDS011;8594;52.052;8.354;2022-10-17T09:29:14;9.10;;;3.53;;
16954;SDS011;8594;52.052;8.354;2022-10-17T09:31:48;11.80;;;3.53;;
16954;SDS011;8594;52.052;8.354;2022-10-17T09:34:26;7.60;;;3.60;;
16954;SDS011;8594;52.052;8.354;2022-10-17T09:36:58;8.63;;;3.70;;
16954;SDS011;8594;52.052;8.354;2022-10-17T09:39:27;9.77;;;3.97;;
16954;SDS011;8594;52.052;8.354;2022-10-17T09:41:56;7.80;;;3.60;;
16954;SDS011;8594;52.052;8.354;2022-10-17T09:44:28;9.53;;;3.90;;
16954;SDS011;8594;52.052;8.354;2022-10-17T09:47:09;5.97;;;3.50;;
16954;SDS011;8594;52.052;8.354;2022-10-17T09:49:47;8.90;;;3.87;;
16954;SDS011;8594;52.052;8.354;2022-10-17T09:52:17;7.10;;;3.53;;
16954;SDS011;8594;52.052;8.354;2022-10-17T09:54:47;9.77;;;3.90;;
16954;SDS011;8594;52.052;8.354;2022-10-17T09:57:17;9.60;;;3.83;;
16954;SDS011;8594;52.052;8.354;2022-10-17T09:59:47;11.53;;;3.93;;
16954;SDS011;8594;52.052;8.354;2022-10-17T10:02:25;6.73;;;3.50;;
16954;SDS011;8594;52.052;8.354;2022-10-17T10:04:56;6.73;;;3.70;;
16954;SDS011;8594;52.052;8.354;2022-10-17T10:07:26;9.60;;;3.97;;
16954;SDS011;8594;52.052;8.354;2022-10-17T10:09:56;9.37;;;3.50;;
16954;SDS011;8594;52.052;8.354;2022-10-17T10:12:27;6.77;;;3.90;;
16954;SDS011;8594;52.052;8.354;2022-10-17T10:14:57;5.63;;;3.03;;
16954;SDS011;8594;52.052;8.354;2022-10-17T10:17:28;9.30;;;4.00;;
16954;SDS011;8594;52.052;8.354;2022-10-17T10:20:03;8.13;;;3.63;;
16954;SDS011;8594;52.052;8.354;2022-10-17T10:23:04;13.70;;;3.87;;
16954;SDS011;8594;52.052;8.354;2022-10-17T10:25:37;6.27;;;3.20;;
16954;SDS011;8594;52.052;8.354;2022-10-17T10:28:17;7.93;;;3.60;;
16954;SDS011;8594;52.052;8.354;2022-10-17T10:30:46;8.73;;;3.83;;
16954;SDS011;8594;52.052;8.354;2022-10-17T10:33:17;7.80;;;3.27;;
16954;SDS011;8594;52.052;8.354;2022-10-17T10:35:52;9.10;;;3.70;;
16954;SDS011;8594;52.052;8.354;2022-10-17T10:38:23;8.27;;;3.53;;
16954;SDS011;8594;52.052;8.354;2022-10-17T10:40:51;5.87;;;3.07;;
16954;SDS011;8594;52.052;8.354;2022-10-17T10:43:28;9.70;;;3.60;;
16954;SDS011;8594;52.052;8.354;2022-10-17T10:46:01;8.00;;;3.80;;
16954;SDS011;8594;52.052;8.354;2022-10-17T10:48:48;6.50;;;3.53;;
16954;SDS011;8594;52.052;8.354;2022-10-17T10:51:20;6.07;;;3.53;;
16954;SDS011;8594;52.052;8.354;2022-10-17T10:53:55;6.17;;;3.17;;
16954;SDS011;8594;52.052;8.354;2022-10-17T10:56:30;5.40;;;3.20;;
16954;SDS011;8594;52.052;8.354;2022-10-17T10:59:04;8.07;;;3.50;;
16954;SDS011;8594;52.052;8.354;2022-10-17T11:01:44;7.90;;;3.70;;
16954;SDS011;8594;52.052;8.354;2022-10-17T11:04:25;10.60;;;3.50;;
16954;SDS011;8594;52.052;8.354;2022-10-17T11:07:01;9.37;;;3.83;;
16954;SDS011;8594;52.052;8.354;2022-10-17T11:09:39;7.03;;;3.60;;
16954;SDS011;8594;52.052;8.354;2022-10-17T11:12:16;5.27;;;3.20;;
16954;SDS011;8594;52.052;8.354;2022-10-17T11:14:50;6.10;;;3.13;;
16954;SDS011;8594;52.052;8.354;2022-10-17T11:17:27;5.93;;;2.90;;
16954;SDS011;8594;52.052;8.354;2022-10-17T11:20:05;6.50;;;3.27;;
16954;SDS011;8594;52.052;8.354;2022-10-17T11:22:43;8.23;;;3.50;;
16954;SDS011;8594;52.052;8.354;2022-10-17T11:25:16;5.77;;;3.00;;
16954;SDS011;8594;52.052;8.354;2022-10-17T11:27:56;5.70;;;3.20;;
16954;SDS011;8594;52.052;8.354;2022-10-17T11:30:23;9.40;;;3.30;;
16954;SDS011;8594;52.052;8.354;2022-10-17T11:32:54;6.03;;;3.10;;
16954;SDS011;8594;52.052;8.354;2022-10-17T11:35:26;9.50;;;3.40;;
16954;SDS011;8594;52.052;8.354;2022-10-17T11:38:02;9.07;;;3.37;;
16954;SDS011;8594;52.052;8.354;2022-10-17T11:40:43;20.67;;;4.03;;
16954;SDS011;8594;52.052;8.354;2022-10-17T11:43:16;11.43;;;3.23;;
16954;SDS011;8594;52.052;8.354;2022-10-17T11:45:54;9.33;;;3.60;;
16954;SDS011;8594;52.052;8.354;2022-10-17T11:48:27;8.23;;;3.40;;
16954;SDS011;8594;52.052;8.354;2022-10-17T11:51:03;5.20;;;3.00;;
16954;SDS011;8594;52.052;8.354;2022-10-17T11:53:41;8.37;;;3.60;;
16954;SDS011;8594;52.052;8.354;2022-10-17T11:56:16;11.90;;;3.53;;
16954;SDS011;8594;52.052;8.354;2022-10-17T11:58:56;10.77;;;3.80;;
16954;SDS011;8594;52.052;8.354;2022-10-17T12:01:43;10.67;;;3.73;;
16954;SDS011;8594;52.052;8.354;2022-10-17T12:04:19;7.83;;;4.13;;
16954;SDS011;8594;52.052;8.354;2022-10-17T12:06:58;8.30;;;3.80;;
16954;SDS011;8594;52.052;8.354;2022-10-17T12:09:39;12.03;;;4.00;;
16954;SDS011;8594;52.052;8.354;2022-10-17T12:12:22;16.00;;;4.57;;
16954;SDS011;8594;52.052;8.354;2022-10-17T12:14:51;11.33;;;4.20;;
16954;SDS011;8594;52.052;8.354;2022-10-17T12:17:29;10.23;;;4.17;;
16954;SDS011;8594;52.052;8.354;2022-10-17T12:20:23;8.27;;;4.00;;
16954;SDS011;8594;52.052;8.354;2022-10-17T12:22:55;7.60;;;4.40;;
16954;SDS011;8594;52.052;8.354;2022-10-17T12:25:30;9.77;;;3.97;;
16954;SDS011;8594;52.052;8.354;2022-10-17T12:28:10;8.73;;;3.93;;
16954;SDS011;8594;52.052;8.354;2022-10-17T12:30:50;17.60;;;4.73;;
16954;SDS011;8594;52.052;8.354;2022-10-17T12:33:27;6.90;;;3.90;;
16954;SDS011;8594;52.052;8.354;2022-10-17T12:51:27;7.77;;;3.90;;
16954;SDS011;8594;52.052;8.354;2022-10-17T12:53:56;13.73;;;4.03;;
16954;SDS011;8594;52.052;8.354;2022-10-17T12:56:29;9.43;;;4.23;;
16954;SDS011;8594;52.052;8.354;2022-10-17T12:59:06;7.27;;;3.90;;
16954;SDS011;8594;52.052;8.354;2022-10-17T13:01:42;8.10;;;3.60;;
16954;SDS011;8594;52.052;8.354;2022-10-17T13:04:14;9.47;;;4.10;;
16954;SDS011;8594;52.052;8.354;2022-10-17T13:06:44;12.43;;;3.83;;
16954;SDS011;8594;52.052;8.354;2022-10-17T13:09:17;9.20;;;3.83;;
16954;SDS011;8594;52.052;8.354;2022-10-17T13:11:53;10.30;;;3.30;;
16954;SDS011;8594;52.052;8.354;2022-10-17T13:14:23;6.20;;;4.10;;
16954;SDS011;8594;52.052;8.354;2022-10-17T13:16:53;10.00;;;3.90;;
16954;SDS011;8594;52.052;8.354;2022-10-17T13:19:22;10.70;;;3.97;;
16954;SDS011;8594;52.052;8.354;2022-10-17T13:22:10;10.50;;;3.80;;
16954;SDS011;8594;52.052;8.354;2022-10-17T13:24:41;10.27;;;4.53;;
16954;SDS011;8594;52.052;8.354;2022-10-17T13:27:20;6.40;;;3.70;;
16954;SDS011;8594;52.052;8.354;2022-10-17T13:29:55;9.47;;;3.90;;
16954;SDS011;8594;52.052;8.354;2022-10-17T13:32:25;9.27;;;4.37;;
16954;SDS011;8594;52.052;8.354;2022-10-17T13:35:06;9.40;;;3.90;;
16954;SDS011;8594;52.052;8.354;2022-10-17T13:37:35;8.43;;;4.27;;
16954;SDS011;8594;52.052;8.354;2022-10-17T13:40:05;12.33;;;4.30;;
16954;SDS011;8594;52.052;8.354;2022-10-17T13:42:41;7.80;;;3.90;;
16954;SDS011;8594;52.052;8.354;2022-10-17T13:45:14;8.17;;;4.23;;
16954;SDS011;8594;52.052;8.354;2022-10-17T13:47:45;9.40;;;4.10;;
16954;SDS011;8594;52.052;8.354;2022-10-17T13:50:18;7.77;;;4.37;;
16954;SDS011;8594;52.052;8.354;2022-10-17T13:53:04;11.30;;;4.77;;
16954;SDS011;8594;52.052;8.354;2022-10-17T13:55:52;9.50;;;3.80;;
16954;SDS011;8594;52.052;8.354;2022-10-17T13:58:25;7.37;;;3.77;;
16954;SDS011;8594;52.052;8.354;2022-10-17T14:00:57;11.43;;;3.87;;
16954;SDS011;8594;52.052;8.354;2022-10-17T14:03:24;15.80;;;4.23;;
16954;SDS011;8594;52.052;8.354;2022-10-17T14:05:58;11.33;;;4.20;;
16954;SDS011;8594;52.052;8.354;2022-10-17T14:08:46;10.57;;;3.90;;
16954;SDS011;8594;52.052;8.354;2022-10-17T14:11:22;13.33;;;4.13;;
16954;SDS011;8594;52.052;8.354;2022-10-17T14:13:55;8.57;;;4.13;;
16954;SDS011;8594;52.052;8.354;2022-10-17T14:16:26;10.40;;;3.60;;
16954;SDS011;8594;52.052;8.354;2022-10-17T14:19:04;11.13;;;3.73;;
16954;SDS011;8594;52.052;8.354;2022-10-17T14:21:39;8.77;;;4.00;;
16954;SDS011;8594;52.052;8.354;2022-10-17T14:24:14;10.87;;;3.83;;
16954;SDS011;8594;52.052;8.354;2022-10-17T14:26:53;13.73;;;3.80;;
16954;SDS011;8594;52.052;8.354;2022-10-17T14:29:24;11.63;;;4.17;;
16954;SDS011;8594;52.052;8.354;2022-10-17T14:31:58;9.13;;;4.00;;
16954;SDS011;8594;52.052;8.354;2022-10-17T14:34:31;7.33;;;4.50;;
16954;SDS011;8594;52.052;8.354;2022-10-17T14:37:01;10.07;;;4.60;;
16954;SDS011;8594;52.052;8.354;2022-10-17T14:39:36;9.57;;;4.67;;
16954;SDS011;8594;52.052;8.354;2022-10-17T14:42:04;10.17;;;4.13;;
16954;SDS011;8594;52.052;8.354;2022-10-17T14:44:31;9.73;;;4.00;;
16954;SDS011;8594;52.052;8.354;2022-10-17T14:47:02;14.67;;;4.10;;
16954;SDS011;8594;52.052;8.354;2022-10-17T14:49:33;9.13;;;5.10;;
16954;SDS011;8594;52.052;8.354;2022-10-17T14:54:55;8.03;;;4.20;;
16954;SDS011;8594;52.052;8.354;2022-10-17T14:57:26;11.40;;;3.93;;
16954;SDS011;8594;52.052;8.354;2022-10-17T15:00:06;8.43;;;4.10;;
16954;SDS011;8594;52.052;8.354;2022-10-17T15:02:39;9.90;;;4.67;;
16954;SDS011;8594;52.052;8.354;2022-10-17T15:05:07;21.10;;;11.60;;
16954;SDS011;8594;52.052;8.354;2022-10-17T15:07:34;12.53;;;4.23;;
16954;SDS011;8594;52.052;8.354;2022-10-17T15:10:01;10.40;;;4.03;;
16954;SDS011;8594;52.052;8.354;2022-10-17T15:12:29;6.03;;;2.90;;
16954;SDS011;8594;52.052;8.354;2022-10-17T15:14:56;9.87;;;3.70;;
16954;SDS011;8594;52.052;8.354;2022-10-17T15:17:24;9.27;;;3.80;;
16954;SDS011;8594;52.052;8.354;2022-10-17T15:19:56;12.27;;;4.53;;
16954;SDS011;8594;52.052;8.354;2022-10-17T15:22:24;8.23;;;4.13;;
16954;SDS011;8594;52.052;8.354;2022-10-17T15:24:51;8.03;;;3.53;;
16954;SDS011;8594;52.052;8.354;2022-10-17T15:27:19;8.47;;;3.80;;
16954;SDS011;8594;52.052;8.354;2022-10-17T15:29:48;13.20;;;4.17;;
16954;SDS011;8594;52.052;8.354;2022-10-17T15:32:16;7.67;;;4.00;;
16954;SDS011;8594;52.052;8.354;2022-10-17T15:34:44;8.90;;;4.10;;
16954;SDS011;8594;52.052;8.354;2022-10-17T15:37:17;10.43;;;4.43;;
16954;SDS011;8594;52.052;8.354;2022-10-17T15:39:47;7.07;;;4.70;;
16954;SDS011;8594;52.052;8.354;2022-10-17T15:42:18;13.10;;;5.27;;
16954;SDS011;8594;52.052;8.354;2022-10-17T15:44:47;9.43;;;4.30;;
16954;SDS011;8594;52.052;8.354;2022-10-17T15:47:17;7.47;;;4.50;;
16954;SDS011;8594;52.052;8.354;2022-10-17T15:49:49;14.30;;;5.03;;